sensor_id;sensor_type;location;lat;lon;timestamp;pressure;altitude;pressure_sealevel;temperature;humidity
71344;BME280;59146;43.850;25.948;2024-01-15T00:00:42;100535.84;;;3.05;53.27
71344;BME280;59146;43.850;25.948;2024-01-15T00:03:07;100565.25;;;3.29;52.82
71344;BME280;59146;43.850;25.948;2024-01-15T00:05:33;100587.38;;;3.37;51.94
71344;BME280;59146;43.850;25.948;2024-01-15T00:07:58;100463.88;;;2.67;51.42
71344;BME280;59146;43.850;25.948;2024-01-15T00:10:24;100557.84;;;3.18;50.99
71344;BME280;59146;43.850;25.948;2024-01-15T00:12:49;100552.47;;;3.24;50.59
71344;BME280;59146;43.850;25.948;2024-01-15T00:15:15;100528.91;;;3.07;50.65
71344;BME280;59146;43.850;25.948;2024-01-15T00:17:40;100590.66;;;3.42;50.83
71344;BME280;59146;43.850;25.948;2024-01-15T00:20:06;100582.25;;;3.36;51.12
71344;BME280;59146;43.850;25.948;2024-01-15T00:22:32;100520.72;;;2.93;50.95
71344;BME280;59146;43.850;25.948;2024-01-15T00:24:58;100522.69;;;3.12;50.70
71344;BME280;59146;43.850;25.948;2024-01-15T00:27:23;100565.38;;;3.24;51.14
71344;BME280;59146;43.850;25.948;2024-01-15T00:29:49;100558.50;;;3.25;50.63
71344;BME280;59146;43.850;25.948;2024-01-15T00:32:16;100530.56;;;3.08;50.18
71344;BME280;59146;43.850;25.948;2024-01-15T00:34:41;100575.59;;;3.27;50.08
71344;BME280;59146;43.850;25.948;2024-01-15T00:37:06;100574.13;;;3.20;49.87
71344;BME280;59146;43.850;25.948;2024-01-15T00:39:32;100565.53;;;3.19;49.54
71344;BME280;59146;43.850;25.948;2024-01-15T00:41:58;100521.72;;;2.87;49.50
71344;BME280;59146;43.850;25.948;2024-01-15T00:44:23;100565.84;;;3.09;49.55
71344;BME280;59146;43.850;25.948;2024-01-15T00:46:49;100526.22;;;2.81;49.57
71344;BME280;59146;43.850;25.948;2024-01-15T00:49:14;100577.25;;;3.00;49.58
71344;BME280;59146;43.850;25.948;2024-01-15T00:51:40;100551.75;;;2.90;49.46
71344;BME280;59146;43.850;25.948;2024-01-15T00:54:06;100566.09;;;3.00;49.41
71344;BME280;59146;43.850;25.948;2024-01-15T00:56:31;100537.44;;;2.80;49.60
71344;BME280;59146;43.850;25.948;2024-01-15T00:58:57;100498.31;;;2.66;49.36
71344;BME280;59146;43.850;25.948;2024-01-15T01:01:22;100499.19;;;2.65;49.40
71344;BME280;59146;43.850;25.948;2024-01-15T01:03:48;100571.25;;;3.00;49.49
71344;BME280;59146;43.850;25.948;2024-01-15T01:06:13;100533.19;;;2.77;49.44
71344;BME280;59146;43.850;25.948;2024-01-15T01:08:39;100560.09;;;2.99;49.69
71344;BME280;59146;43.850;25.948;2024-01-15T01:11:04;100547.66;;;2.83;49.46
71344;BME280;59146;43.850;25.948;2024-01-15T01:13:31;100555.16;;;2.92;49.48
71344;BME280;59146;43.850;25.948;2024-01-15T01:15:57;100485.66;;;2.57;49.58
71344;BME280;59146;43.850;25.948;2024-01-15T01:18:22;100526.31;;;2.78;49.59
71344;BME280;59146;43.850;25.948;2024-01-15T01:20:47;100478.94;;;2.51;49.83
71344;BME280;59146;43.850;25.948;2024-01-15T01:23:13;100528.66;;;2.85;49.63
71344;BME280;59146;43.850;25.948;2024-01-15T01:25:38;100463.59;;;2.47;49.37
71344;BME280;59146;43.850;25.948;2024-01-15T01:28:04;100479.88;;;2.49;49.82
71344;BME280;59146;43.850;25.948;2024-01-15T01:30:29;100537.31;;;2.84;49.52
71344;BME280;59146;43.850;25.948;2024-01-15T01:32:54;100507.88;;;2.61;49.78
71344;BME280;59146;43.850;25.948;2024-01-15T01:35:20;100505.94;;;2.69;49.53
71344;BME280;59146;43.850;25.948;2024-01-15T01:37:45;100462.56;;;2.52;49.33
71344;BME280;59146;43.850;25.948;2024-01-15T01:40:11;100497.50;;;2.64;49.61
71344;BME280;59146;43.850;25.948;2024-01-15T01:42:36;100522.94;;;2.76;49.65
71344;BME280;59146;43.850;25.948;2024-01-15T01:45:02;100509.59;;;2.62;49.83
71344;BME280;59146;43.850;25.948;2024-01-15T01:47:27;100517.19;;;2.66;49.87
71344;BME280;59146;43.850;25.948;2024-01-15T01:49:53;100448.00;;;2.20;50.20
71344;BME280;59146;43.850;25.948;2024-01-15T01:52:19;100458.44;;;2.16;50.27
71344;BME280;59146;43.850;25.948;2024-01-15T01:54:45;100469.69;;;2.13;50.17
71344;BME280;59146;43.850;25.948;2024-01-15T01:57:12;100482.13;;;2.28;50.22
71344;BME280;59146;43.850;25.948;2024-01-15T01:59:37;100506.66;;;2.43;50.30
71344;BME280;59146;43.850;25.948;2024-01-15T02:02:04;100464.31;;;2.21;50.41
71344;BME280;59146;43.850;25.948;2024-01-15T02:04:31;100412.78;;;1.89;50.17
71344;BME280;59146;43.850;25.948;2024-01-15T02:10:18;100471.41;;;2.13;50.45
71344;BME280;59146;43.850;25.948;2024-01-15T02:12:44;100437.41;;;2.00;50.40
71344;BME280;59146;43.850;25.948;2024-01-15T02:15:10;100520.41;;;2.43;50.30
71344;BME280;59146;43.850;25.948;2024-01-15T02:17:58;100519.69;;;2.38;50.55
71344;BME280;59146;43.850;25.948;2024-01-15T02:20:24;100461.81;;;2.18;50.32
71344;BME280;59146;43.850;25.948;2024-01-15T02:22:50;100429.84;;;1.94;50.41
71344;BME280;59146;43.850;25.948;2024-01-15T02:25:15;100441.00;;;1.93;50.65
71344;BME280;59146;43.850;25.948;2024-01-15T02:27:42;100467.47;;;2.00;50.88
71344;BME280;59146;43.850;25.948;2024-01-15T02:30:09;100447.06;;;1.91;50.57
71344;BME280;59146;43.850;25.948;2024-01-15T02:32:36;100414.84;;;1.76;50.60
71344;BME280;59146;43.850;25.948;2024-01-15T02:35:01;100462.59;;;2.21;50.35
71344;BME280;59146;43.850;25.948;2024-01-15T02:37:27;100470.22;;;2.24;50.41
71344;BME280;59146;43.850;25.948;2024-01-15T02:39:52;100379.94;;;1.66;50.60
71344;BME280;59146;43.850;25.948;2024-01-15T02:42:17;100398.59;;;1.74;50.71
71344;BME280;59146;43.850;25.948;2024-01-15T02:44:43;100463.03;;;2.05;50.83
71344;BME280;59146;43.850;25.948;2024-01-15T02:47:08;100421.00;;;1.71;51.10
71344;BME280;59146;43.850;25.948;2024-01-15T02:49:34;100423.47;;;1.75;51.06
71344;BME280;59146;43.850;25.948;2024-01-15T02:51:59;100406.16;;;1.48;51.31
71344;BME280;59146;43.850;25.948;2024-01-15T02:54:24;100454.06;;;1.87;51.23
71344;BME280;59146;43.850;25.948;2024-01-15T02:56:50;100455.94;;;1.81;51.42
71344;BME280;59146;43.850;25.948;2024-01-15T02:59:15;100397.34;;;1.56;51.03
71344;BME280;59146;43.850;25.948;2024-01-15T03:01:41;100479.50;;;1.99;51.26
71344;BME280;59146;43.850;25.948;2024-01-15T03:04:06;100422.81;;;1.67;51.17
71344;BME280;59146;43.850;25.948;2024-01-15T03:06:32;100410.97;;;1.60;51.42
71344;BME280;59146;43.850;25.948;2024-01-15T03:08:57;100460.06;;;1.88;51.27
71344;BME280;59146;43.850;25.948;2024-01-15T03:11:23;100409.22;;;1.62;51.53
71344;BME280;59146;43.850;25.948;2024-01-15T03:13:48;100401.81;;;1.50;51.57
71344;BME280;59146;43.850;25.948;2024-01-15T03:16:13;100370.44;;;1.34;51.53
71344;BME280;59146;43.850;25.948;2024-01-15T03:18:39;100334.56;;;1.30;51.25
71344;BME280;59146;43.850;25.948;2024-01-15T03:21:05;100455.47;;;1.99;51.18
71344;BME280;59146;43.850;25.948;2024-01-15T03:23:30;100376.66;;;1.26;58.07
71344;BME280;59146;43.850;25.948;2024-01-15T03:25:56;100436.91;;;1.19;67.54
71344;BME280;59146;43.850;25.948;2024-01-15T03:28:21;100359.06;;;0.36;72.96
71344;BME280;59146;43.850;25.948;2024-01-15T03:30:47;100418.31;;;0.68;75.31
71344;BME280;59146;43.850;25.948;2024-01-15T03:33:12;100453.50;;;0.66;75.78
71344;BME280;59146;43.850;25.948;2024-01-15T03:35:37;100387.53;;;0.25;75.63
71344;BME280;59146;43.850;25.948;2024-01-15T03:38:03;100440.97;;;0.52;76.10
71344;BME280;59146;43.850;25.948;2024-01-15T03:40:28;100332.25;;;-0.34;76.26
71344;BME280;59146;43.850;25.948;2024-01-15T03:42:54;100358.28;;;-0.09;74.52
71344;BME280;59146;43.850;25.948;2024-01-15T03:45:19;100444.41;;;0.51;75.02
71344;BME280;59146;43.850;25.948;2024-01-15T03:47:45;100423.41;;;0.30;76.27
71344;BME280;59146;43.850;25.948;2024-01-15T03:50:10;100411.03;;;0.07;77.49
71344;BME280;59146;43.850;25.948;2024-01-15T03:52:35;100414.63;;;-0.02;79.49
71344;BME280;59146;43.850;25.948;2024-01-15T03:55:01;100441.72;;;0.13;81.52
71344;BME280;59146;43.850;25.948;2024-01-15T03:57:26;100438.63;;;-0.04;82.10
71344;BME280;59146;43.850;25.948;2024-01-15T03:59:52;100441.38;;;-0.13;82.34
71344;BME280;59146;43.850;25.948;2024-01-15T04:02:17;100425.28;;;-0.21;80.92
71344;BME280;59146;43.850;25.948;2024-01-15T04:04:43;100377.91;;;-0.51;80.89
71344;BME280;59146;43.850;25.948;2024-01-15T04:07:11;100399.91;;;-0.39;80.87
71344;BME280;59146;43.850;25.948;2024-01-15T04:09:37;100426.22;;;-0.27;81.38
71344;BME280;59146;43.850;25.948;2024-01-15T04:12:03;100377.75;;;-0.43;77.63
71344;BME280;59146;43.850;25.948;2024-01-15T04:14:28;100417.50;;;-0.18;78.34
71344;BME280;59146;43.850;25.948;2024-01-15T04:16:54;100401.56;;;-0.34;78.82
71344;BME280;59146;43.850;25.948;2024-01-15T04:19:19;100435.63;;;-0.27;82.60
71344;BME280;59146;43.850;25.948;2024-01-15T04:21:44;100379.94;;;-0.69;83.51
71344;BME280;59146;43.850;25.948;2024-01-15T04:24:10;100323.88;;;-0.91;83.34
71344;BME280;59146;43.850;25.948;2024-01-15T04:26:35;100391.06;;;-0.70;81.49
71344;BME280;59146;43.850;25.948;2024-01-15T04:29:01;100339.53;;;-1.09;79.71
71344;BME280;59146;43.850;25.948;2024-01-15T04:31:26;100471.88;;;-0.45;77.33
71344;BME280;59146;43.850;25.948;2024-01-15T04:33:52;100385.44;;;-0.94;75.41
71344;BME280;59146;43.850;25.948;2024-01-15T04:36:18;100454.88;;;-0.52;72.56
71344;BME280;59146;43.850;25.948;2024-01-15T04:38:43;100471.97;;;-0.51;73.08
71344;BME280;59146;43.850;25.948;2024-01-15T04:41:16;100461.75;;;-0.54;71.58
71344;BME280;59146;43.850;25.948;2024-01-15T04:43:41;100473.75;;;-0.56;71.79
71344;BME280;59146;43.850;25.948;2024-01-15T04:46:07;100408.03;;;-0.63;70.62
71344;BME280;59146;43.850;25.948;2024-01-15T04:48:33;100444.63;;;-0.52;70.61
71344;BME280;59146;43.850;25.948;2024-01-15T04:50:59;100420.97;;;-0.69;71.01
71344;BME280;59146;43.850;25.948;2024-01-15T04:53:24;100383.34;;;-0.70;71.16
71344;BME280;59146;43.850;25.948;2024-01-15T04:55:50;100376.59;;;-0.74;72.72
71344;BME280;59146;43.850;25.948;2024-01-15T04:58:15;100388.47;;;-0.69;72.95
71344;BME280;59146;43.850;25.948;2024-01-15T05:00:41;100400.13;;;-0.51;71.93
71344;BME280;59146;43.850;25.948;2024-01-15T05:03:06;100385.00;;;-0.66;72.44
71344;BME280;59146;43.850;25.948;2024-01-15T05:05:31;100393.63;;;-0.70;71.40
71344;BME280;59146;43.850;25.948;2024-01-15T05:07:57;100443.56;;;-0.41;74.34
71344;BME280;59146;43.850;25.948;2024-01-15T05:10:22;100457.00;;;-0.27;75.69
71344;BME280;59146;43.850;25.948;2024-01-15T05:12:48;100380.03;;;-0.77;76.67
71344;BME280;59146;43.850;25.948;2024-01-15T05:15:13;100446.28;;;-0.48;75.56
71344;BME280;59146;43.850;25.948;2024-01-15T05:17:38;100454.78;;;-0.45;75.87
71344;BME280;59146;43.850;25.948;2024-01-15T05:20:04;100420.91;;;-0.66;74.65
71344;BME280;59146;43.850;25.948;2024-01-15T05:22:30;100382.78;;;-0.86;73.52
71344;BME280;59146;43.850;25.948;2024-01-15T05:24:56;100414.84;;;-0.61;73.12
71344;BME280;59146;43.850;25.948;2024-01-15T05:27:21;100370.94;;;-0.95;73.14
71344;BME280;59146;43.850;25.948;2024-01-15T05:29:47;100354.69;;;-0.94;72.79
71344;BME280;59146;43.850;25.948;2024-01-15T05:32:12;100399.28;;;-0.50;72.21
71344;BME280;59146;43.850;25.948;2024-01-15T05:34:37;100358.53;;;-0.68;71.72
71344;BME280;59146;43.850;25.948;2024-01-15T05:37:03;100415.75;;;-0.16;70.75
71344;BME280;59146;43.850;25.948;2024-01-15T05:39:28;100349.78;;;-0.58;70.71
71344;BME280;59146;43.850;25.948;2024-01-15T05:41:54;100396.38;;;-0.32;70.85
71344;BME280;59146;43.850;25.948;2024-01-15T05:44:19;100406.19;;;-0.08;71.06
71344;BME280;59146;43.850;25.948;2024-01-15T05:46:45;100346.50;;;-0.65;71.51
71344;BME280;59146;43.850;25.948;2024-01-15T05:49:11;100370.75;;;-0.35;71.20
71344;BME280;59146;43.850;25.948;2024-01-15T05:51:37;100407.75;;;-0.01;70.54
71344;BME280;59146;43.850;25.948;2024-01-15T05:54:02;100336.31;;;-0.24;69.34
71344;BME280;59146;43.850;25.948;2024-01-15T05:56:27;100355.84;;;-0.15;69.67
71344;BME280;59146;43.850;25.948;2024-01-15T05:58:53;100323.66;;;-0.33;69.46
71344;BME280;59146;43.850;25.948;2024-01-15T06:01:18;100310.69;;;-0.27;68.92
71344;BME280;59146;43.850;25.948;2024-01-15T06:03:44;100399.53;;;0.26;68.30
71344;BME280;59146;43.850;25.948;2024-01-15T06:06:09;100388.59;;;0.15;69.24
71344;BME280;59146;43.850;25.948;2024-01-15T06:08:35;100219.44;;;-0.83;67.39
71344;BME280;59146;43.850;25.948;2024-01-15T06:11:00;100367.31;;;0.10;66.55
71344;BME280;59146;43.850;25.948;2024-01-15T06:13:25;100350.28;;;0.05;65.22
71344;BME280;59146;43.850;25.948;2024-01-15T06:15:51;100389.50;;;0.54;64.82
71344;BME280;59146;43.850;25.948;2024-01-15T06:18:16;100391.09;;;0.59;66.00
71344;BME280;59146;43.850;25.948;2024-01-15T06:20:42;100407.09;;;0.72;72.23
71344;BME280;59146;43.850;25.948;2024-01-15T06:23:08;100274.69;;;-0.22;77.00
71344;BME280;59146;43.850;25.948;2024-01-15T06:25:33;100342.44;;;0.12;79.62
71344;BME280;59146;43.850;25.948;2024-01-15T06:27:58;100383.34;;;0.21;80.21
71344;BME280;59146;43.850;25.948;2024-01-15T06:30:24;100391.50;;;0.41;80.26
71344;BME280;59146;43.850;25.948;2024-01-15T06:32:49;100206.47;;;-0.75;80.41
71344;BME280;59146;43.850;25.948;2024-01-15T06:35:15;100364.66;;;0.13;80.96
71344;BME280;59146;43.850;25.948;2024-01-15T06:37:41;100405.47;;;0.28;79.20
71344;BME280;59146;43.850;25.948;2024-01-15T06:40:07;100406.66;;;0.12;79.51
71344;BME280;59146;43.850;25.948;2024-01-15T06:42:33;100382.13;;;-0.04;77.28
71344;BME280;59146;43.850;25.948;2024-01-15T06:44:58;100409.16;;;0.15;79.00
71344;BME280;59146;43.850;25.948;2024-01-15T06:47:24;100317.59;;;-0.29;79.39
71344;BME280;59146;43.850;25.948;2024-01-15T06:49:49;100383.22;;;0.67;77.87
71344;BME280;59146;43.850;25.948;2024-01-15T06:52:15;100387.25;;;1.14;75.55
71344;BME280;59146;43.850;25.948;2024-01-15T06:54:41;100314.19;;;0.87;73.48
71344;BME280;59146;43.850;25.948;2024-01-15T06:57:07;100395.75;;;1.52;71.39
71344;BME280;59146;43.850;25.948;2024-01-15T06:59:34;100338.59;;;1.40;69.29
71344;BME280;59146;43.850;25.948;2024-01-15T07:02:00;100314.19;;;1.21;68.37
71344;BME280;59146;43.850;25.948;2024-01-15T07:04:26;100343.03;;;1.33;69.73
71344;BME280;59146;43.850;25.948;2024-01-15T07:06:51;100308.69;;;1.02;69.84
71344;BME280;59146;43.850;25.948;2024-01-15T07:09:16;100379.81;;;1.37;70.42
71344;BME280;59146;43.850;25.948;2024-01-15T07:11:45;100385.47;;;1.51;70.34
71344;BME280;59146;43.850;25.948;2024-01-15T07:14:12;100382.34;;;1.40;70.63
71344;BME280;59146;43.850;25.948;2024-01-15T07:16:37;100326.25;;;1.19;70.23
71344;BME280;59146;43.850;25.948;2024-01-15T07:19:02;100340.53;;;1.30;69.53
71344;BME280;59146;43.850;25.948;2024-01-15T07:31:33;100370.41;;;1.70;69.21
71344;BME280;59146;43.850;25.948;2024-01-15T07:33:58;100382.34;;;1.72;69.71
71344;BME280;59146;43.850;25.948;2024-01-15T07:36:25;100351.94;;;1.54;70.34
71344;BME280;59146;43.850;25.948;2024-01-15T07:38:50;100385.44;;;1.85;71.66
71344;BME280;59146;43.850;25.948;2024-01-15T07:41:16;100383.72;;;1.85;73.73
71344;BME280;59146;43.850;25.948;2024-01-15T07:43:41;100312.03;;;1.38;74.11
71344;BME280;59146;43.850;25.948;2024-01-15T07:46:07;100382.06;;;1.83;73.45
71344;BME280;59146;43.850;25.948;2024-01-15T07:48:32;100315.78;;;1.58;72.85
71344;BME280;59146;43.850;25.948;2024-01-15T07:50:58;100308.84;;;1.60;71.75
71344;BME280;59146;43.850;25.948;2024-01-15T07:53:23;100353.47;;;1.92;71.80
71344;BME280;59146;43.850;25.948;2024-01-15T07:55:49;100358.84;;;2.15;70.64
71344;BME280;59146;43.850;25.948;2024-01-15T07:58:14;100374.53;;;2.36;69.63
71344;BME280;59146;43.850;25.948;2024-01-15T08:00:39;100370.19;;;2.38;68.54
71344;BME280;59146;43.850;25.948;2024-01-15T08:03:05;100376.06;;;2.42;68.64
71344;BME280;59146;43.850;25.948;2024-01-15T08:05:31;100324.97;;;1.98;68.89
71344;BME280;59146;43.850;25.948;2024-01-15T08:07:57;100355.94;;;2.25;69.67
71344;BME280;59146;43.850;25.948;2024-01-15T08:10:23;100360.06;;;2.32;70.71
71344;BME280;59146;43.850;25.948;2024-01-15T08:12:48;100302.31;;;2.09;69.84
71344;BME280;59146;43.850;25.948;2024-01-15T08:15:14;100368.81;;;2.55;69.84
71344;BME280;59146;43.850;25.948;2024-01-15T08:17:39;100368.69;;;2.59;69.86
71344;BME280;59146;43.850;25.948;2024-01-15T08:20:05;100279.19;;;2.07;69.90
71344;BME280;59146;43.850;25.948;2024-01-15T08:22:30;100304.84;;;2.10;69.13
71344;BME280;59146;43.850;25.948;2024-01-15T08:24:56;100303.34;;;2.32;69.58
71344;BME280;59146;43.850;25.948;2024-01-15T08:27:21;100361.69;;;2.90;69.40
71344;BME280;59146;43.850;25.948;2024-01-15T08:29:47;100359.50;;;3.04;68.58
71344;BME280;59146;43.850;25.948;2024-01-15T08:32:12;100307.00;;;2.79;67.63
71344;BME280;59146;43.850;25.948;2024-01-15T08:34:40;100324.25;;;3.05;67.73
71344;BME280;59146;43.850;25.948;2024-01-15T08:37:07;100132.56;;;2.00;66.14
71344;BME280;59146;43.850;25.948;2024-01-15T08:39:32;100345.56;;;3.36;65.93
71344;BME280;59146;43.850;25.948;2024-01-15T08:41:58;100285.13;;;3.17;64.19
71344;BME280;59146;43.850;25.948;2024-01-15T08:44:23;100340.53;;;3.58;65.24
71344;BME280;59146;43.850;25.948;2024-01-15T08:46:48;100206.78;;;2.69;66.80
71344;BME280;59146;43.850;25.948;2024-01-15T08:49:14;100370.13;;;3.72;65.66
71344;BME280;59146;43.850;25.948;2024-01-15T08:51:39;100337.19;;;3.54;63.40
71344;BME280;59146;43.850;25.948;2024-01-15T08:54:05;100292.47;;;3.52;61.62
71344;BME280;59146;43.850;25.948;2024-01-15T08:56:33;100257.59;;;3.65;60.44
71344;BME280;59146;43.850;25.948;2024-01-15T08:58:59;100313.56;;;4.13;60.80
71344;BME280;59146;43.850;25.948;2024-01-15T09:01:24;100301.66;;;4.30;60.79
71344;BME280;59146;43.850;25.948;2024-01-15T09:03:49;100301.34;;;4.38;59.47
71344;BME280;59146;43.850;25.948;2024-01-15T09:06:15;100219.09;;;4.04;59.88
71344;BME280;59146;43.850;25.948;2024-01-15T09:08:40;100208.75;;;4.26;53.07
71344;BME280;59146;43.850;25.948;2024-01-15T09:11:06;100264.28;;;5.22;50.80
71344;BME280;59146;43.850;25.948;2024-01-15T09:13:31;100261.19;;;5.73;47.24
71344;BME280;59146;43.850;25.948;2024-01-15T09:15:57;100231.81;;;5.93;46.71
71344;BME280;59146;43.850;25.948;2024-01-15T09:18:23;100235.97;;;6.14;46.51
71344;BME280;59146;43.850;25.948;2024-01-15T09:20:48;100236.41;;;6.23;49.52
71344;BME280;59146;43.850;25.948;2024-01-15T09:23:14;100250.53;;;6.35;48.51
71344;BME280;59146;43.850;25.948;2024-01-15T09:25:39;100202.44;;;6.11;48.90
71344;BME280;59146;43.850;25.948;2024-01-15T09:28:05;100241.16;;;6.51;51.24
71344;BME280;59146;43.850;25.948;2024-01-15T09:30:30;100189.81;;;6.22;50.58
71344;BME280;59146;43.850;25.948;2024-01-15T09:32:56;100150.00;;;6.04;51.32
71344;BME280;59146;43.850;25.948;2024-01-15T09:35:22;100181.28;;;6.54;52.55
71344;BME280;59146;43.850;25.948;2024-01-15T09:37:47;100178.13;;;6.30;49.78
71344;BME280;59146;43.850;25.948;2024-01-15T09:40:13;100217.84;;;6.50;51.36
71344;BME280;59146;43.850;25.948;2024-01-15T09:42:40;100243.63;;;7.05;49.64
71344;BME280;59146;43.850;25.948;2024-01-15T09:45:07;100192.50;;;7.06;49.11
71344;BME280;59146;43.850;25.948;2024-01-15T09:47:33;100163.88;;;7.07;47.48
71344;BME280;59146;43.850;25.948;2024-01-15T09:49:58;100157.72;;;7.26;45.87
71344;BME280;59146;43.850;25.948;2024-01-15T09:52:25;100187.91;;;7.92;44.22
71344;BME280;59146;43.850;25.948;2024-01-15T09:54:50;100211.66;;;8.48;42.84
71344;BME280;59146;43.850;25.948;2024-01-15T09:57:17;100179.53;;;8.34;41.61
71344;BME280;59146;43.850;25.948;2024-01-15T09:59:43;100194.03;;;8.53;40.49
71344;BME280;59146;43.850;25.948;2024-01-15T10:02:12;100149.69;;;8.55;40.85
71344;BME280;59146;43.850;25.948;2024-01-15T10:04:39;100165.41;;;8.97;39.79
71344;BME280;59146;43.850;25.948;2024-01-15T10:07:05;100147.19;;;8.97;38.30
71344;BME280;59146;43.850;25.948;2024-01-15T10:09:33;100204.59;;;9.10;37.87
71344;BME280;59146;43.850;25.948;2024-01-15T10:11:59;100143.94;;;8.94;37.69
71344;BME280;59146;43.850;25.948;2024-01-15T10:14:24;100195.59;;;9.57;37.54
71344;BME280;59146;43.850;25.948;2024-01-15T10:16:50;100178.53;;;9.10;36.84
71344;BME280;59146;43.850;25.948;2024-01-15T10:19:15;100181.47;;;9.19;37.13
71344;BME280;59146;43.850;25.948;2024-01-15T10:21:41;100163.31;;;9.46;36.76
71344;BME280;59146;43.850;25.948;2024-01-15T10:24:06;100178.00;;;9.75;36.27
71344;BME280;59146;43.850;25.948;2024-01-15T10:26:32;100143.19;;;9.48;36.29
71344;BME280;59146;43.850;25.948;2024-01-15T10:29:00;100164.59;;;9.67;36.49
71344;BME280;59146;43.850;25.948;2024-01-15T10:31:26;100117.66;;;9.67;36.27
71344;BME280;59146;43.850;25.948;2024-01-15T10:33:52;100130.75;;;10.20;35.80
71344;BME280;59146;43.850;25.948;2024-01-15T10:36:18;100153.72;;;10.42;34.83
71344;BME280;59146;43.850;25.948;2024-01-15T10:38:44;100049.84;;;9.67;35.20
71344;BME280;59146;43.850;25.948;2024-01-15T10:41:10;100072.41;;;9.95;35.61
71344;BME280;59146;43.850;25.948;2024-01-15T10:43:35;100079.66;;;10.30;35.15
71344;BME280;59146;43.850;25.948;2024-01-15T10:46:01;100083.91;;;10.31;35.49
71344;BME280;59146;43.850;25.948;2024-01-15T10:48:27;100121.53;;;10.42;35.64
71344;BME280;59146;43.850;25.948;2024-01-15T10:50:54;100067.38;;;10.18;35.70
71344;BME280;59146;43.850;25.948;2024-01-15T10:53:20;100048.41;;;10.42;35.71
71344;BME280;59146;43.850;25.948;2024-01-15T10:55:47;100063.50;;;10.88;34.79
71344;BME280;59146;43.850;25.948;2024-01-15T10:58:15;100030.25;;;10.40;34.83
71344;BME280;59146;43.850;25.948;2024-01-15T11:00:43;100062.97;;;10.83;35.22
71344;BME280;59146;43.850;25.948;2024-01-15T11:03:08;100038.09;;;11.03;34.17
71344;BME280;59146;43.850;25.948;2024-01-15T11:05:38;99949.41;;;10.64;34.13
71344;BME280;59146;43.850;25.948;2024-01-15T11:08:07;100003.63;;;10.73;34.25
71344;BME280;59146;43.850;25.948;2024-01-15T11:10:46;100002.44;;;10.89;34.62
71344;BME280;59146;43.850;25.948;2024-01-15T11:13:15;100055.47;;;11.40;33.95
71344;BME280;59146;43.850;25.948;2024-01-15T11:16:07;100059.09;;;11.14;34.08
71344;BME280;59146;43.850;25.948;2024-01-15T11:18:37;100024.06;;;11.04;34.56
71344;BME280;59146;43.850;25.948;2024-01-15T11:23:59;100043.16;;;11.78;32.97
71344;BME280;59146;43.850;25.948;2024-01-15T11:29:10;100006.25;;;11.70;33.30
71344;BME280;59146;43.850;25.948;2024-01-15T11:34:04;100010.81;;;12.14;31.90
71344;BME280;59146;43.850;25.948;2024-01-15T11:41:58;100013.47;;;11.90;32.44
71344;BME280;59146;43.850;25.948;2024-01-15T11:44:23;99954.22;;;11.42;32.21
71344;BME280;59146;43.850;25.948;2024-01-15T11:50:02;100043.09;;;11.55;33.16
71344;BME280;59146;43.850;25.948;2024-01-15T11:52:36;99974.69;;;11.48;33.03
71344;BME280;59146;43.850;25.948;2024-01-15T11:55:11;100018.16;;;11.74;32.33
71344;BME280;59146;43.850;25.948;2024-01-15T12:00:12;99977.94;;;11.75;33.04
71344;BME280;59146;43.850;25.948;2024-01-15T12:02:39;99957.25;;;12.07;32.86
71344;BME280;59146;43.850;25.948;2024-01-15T12:05:07;100013.50;;;12.36;31.94
71344;BME280;59146;43.850;25.948;2024-01-15T12:07:33;100002.53;;;12.31;32.22
71344;BME280;59146;43.850;25.948;2024-01-15T12:09:58;99965.47;;;12.14;32.51
71344;BME280;59146;43.850;25.948;2024-01-15T12:12:29;99988.63;;;12.42;32.23
71344;BME280;59146;43.850;25.948;2024-01-15T12:14:58;99853.59;;;11.59;32.24
71344;BME280;59146;43.850;25.948;2024-01-15T12:17:23;99905.91;;;11.59;32.73
71344;BME280;59146;43.850;25.948;2024-01-15T12:19:49;99936.88;;;12.00;32.77
71344;BME280;59146;43.850;25.948;2024-01-15T12:22:14;99936.38;;;12.51;32.05
71344;BME280;59146;43.850;25.948;2024-01-15T12:24:40;99975.22;;;12.80;31.94
71344;BME280;59146;43.850;25.948;2024-01-15T12:27:06;99950.28;;;12.41;32.18
71344;BME280;59146;43.850;25.948;2024-01-15T12:29:33;99934.06;;;12.36;31.91
71344;BME280;59146;43.850;25.948;2024-01-15T12:31:58;99954.38;;;11.99;32.91
71344;BME280;59146;43.850;25.948;2024-01-15T12:34:23;99950.78;;;11.89;33.18
71344;BME280;59146;43.850;25.948;2024-01-15T12:36:49;99899.72;;;11.83;32.87
71344;BME280;59146;43.850;25.948;2024-01-15T12:39:15;99910.03;;;11.74;33.31
71344;BME280;59146;43.850;25.948;2024-01-15T12:41:41;99944.19;;;11.83;33.47
71344;BME280;59146;43.850;25.948;2024-01-15T12:44:06;99898.63;;;11.51;33.78
71344;BME280;59146;43.850;25.948;2024-01-15T12:46:32;99914.56;;;11.72;33.71
71344;BME280;59146;43.850;25.948;2024-01-15T12:48:57;99855.44;;;11.46;33.54
71344;BME280;59146;43.850;25.948;2024-01-15T12:51:26;99931.34;;;11.80;34.02
71344;BME280;59146;43.850;25.948;2024-01-15T12:53:52;99860.13;;;11.53;34.47
71344;BME280;59146;43.850;25.948;2024-01-15T12:56:18;99868.09;;;11.86;33.91
71344;BME280;59146;43.850;25.948;2024-01-15T12:58:43;99911.56;;;12.22;33.44
71344;BME280;59146;43.850;25.948;2024-01-15T13:01:09;99848.28;;;11.60;34.04
71344;BME280;59146;43.850;25.948;2024-01-15T13:03:34;99865.06;;;11.69;34.00
71344;BME280;59146;43.850;25.948;2024-01-15T13:06:00;99799.47;;;11.37;33.63
71344;BME280;59146;43.850;25.948;2024-01-15T13:08:25;99916.28;;;11.95;34.17
71344;BME280;59146;43.850;25.948;2024-01-15T13:10:53;99932.78;;;11.84;34.47
71344;BME280;59146;43.850;25.948;2024-01-15T13:13:21;99902.53;;;11.69;34.84